Time;durP1;ratioP1;P1;durP2;ratioP2;P2;SDS_P1;SDS_P2;PMS_P1;PMS_P2;Temp;Humidity;BMP_temperature;BMP_pressure;BME280_temperature;BME280_humidity;BME280_pressure;Samples;Min_cycle;Max_cycle;Signal;HPM_P1;HPM_P2
2022/12/05 00:01:59;;;;;;;17.17;9.77;;;;;;;;;;5148154;27;20281;-69
2022/12/05 00:04:24;;;;;;;18.50;9.20;;;;;;;;;;5145235;27;20026;-70
2022/12/05 00:06:50;;;;;;;21.17;10.55;;;;;;;;;;5146570;27;20279;-70
2022/12/05 00:09:15;;;;;;;22.37;10.87;;;;;;;;;;5122317;27;20027;-71
2022/12/05 00:11:41;;;;;;;23.53;10.63;;;;;;;;;;5149510;27;20026;-70
2022/12/05 00:14:07;;;;;;;21.45;10.45;;;;;;;;;;5146152;27;21235;-70
2022/12/05 00:16:34;;;;;;;21.60;10.80;;;;;;;;;;5149352;27;20132;-70
2022/12/05 00:18:59;;;;;;;22.38;10.88;;;;;;;;;;5148130;27;20027;-70
2022/12/05 00:21:26;;;;;;;20.38;10.27;;;;;;;;;;5148234;27;20037;-70
2022/12/05 00:23:51;;;;;;;20.45;10.57;;;;;;;;;;5147994;27;20105;-70
2022/12/05 00:26:17;;;;;;;17.00;10.23;;;;;;;;;;5148037;27;20125;-70
2022/12/05 00:28:43;;;;;;;16.33;9.75;;;;;;;;;;5148991;27;20083;-70
2022/12/05 00:31:10;;;;;;;16.25;9.02;;;;;;;;;;5147309;27;20026;-70
2022/12/05 00:33:35;;;;;;;18.38;9.65;;;;;;;;;;5143264;27;20058;-69
2022/12/05 00:36:01;;;;;;;14.03;7.77;;;;;;;;;;5146289;27;20085;-70
2022/12/05 00:38:27;;;;;;;15.93;9.00;;;;;;;;;;5142406;27;20282;-70
2022/12/05 00:40:52;;;;;;;17.90;7.90;;;;;;;;;;5146687;27;20091;-70
2022/12/05 00:43:17;;;;;;;15.23;8.67;;;;;;;;;;5125987;27;20354;-70
2022/12/05 00:45:42;;;;;;;13.77;8.07;;;;;;;;;;5123666;27;20035;-70
2022/12/05 00:48:07;;;;;;;15.20;7.70;;;;;;;;;;5142968;27;20326;-71
2022/12/05 00:50:33;;;;;;;16.47;9.20;;;;;;;;;;5146810;27;20023;-70
2022/12/05 00:52:58;;;;;;;14.53;8.47;;;;;;;;;;5144156;27;20035;-70
2022/12/05 00:55:23;;;;;;;17.53;8.50;;;;;;;;;;5140855;27;20036;-70
2022/12/05 00:57:48;;;;;;;17.03;8.77;;;;;;;;;;5147097;27;20293;-70
2022/12/05 01:00:14;;;;;;;16.43;8.40;;;;;;;;;;5128365;27;20290;-70
2022/12/05 01:02:39;;;;;;;14.15;8.00;;;;;;;;;;5142314;27;20767;-70
2022/12/05 01:05:04;;;;;;;17.47;8.70;;;;;;;;;;5145955;27;20027;-70
2022/12/05 01:07:30;;;;;;;17.50;9.13;;;;;;;;;;5146693;27;20049;-70
2022/12/05 01:09:55;;;;;;;16.50;8.97;;;;;;;;;;5147944;27;20022;-70
2022/12/05 01:12:20;;;;;;;14.77;7.87;;;;;;;;;;5143848;27;20889;-71
2022/12/05 01:14:45;;;;;;;14.13;8.07;;;;;;;;;;5124779;27;20058;-68
2022/12/05 01:17:11;;;;;;;15.98;8.63;;;;;;;;;;5143794;27;20113;-70
2022/12/05 01:19:36;;;;;;;16.20;8.37;;;;;;;;;;5149926;27;20059;-70
2022/12/05 01:22:01;;;;;;;18.08;8.32;;;;;;;;;;5125995;27;20158;-70
2022/12/05 01:24:28;;;;;;;13.63;7.93;;;;;;;;;;5144979;27;20071;-69
2022/12/05 01:26:53;;;;;;;13.18;7.65;;;;;;;;;;5126299;27;20487;-70
2022/12/05 01:29:19;;;;;;;14.13;7.83;;;;;;;;;;5146973;27;20034;-69
2022/12/05 01:31:45;;;;;;;16.02;7.85;;;;;;;;;;5126498;27;20282;-71
2022/12/05 01:34:11;;;;;;;13.27;7.43;;;;;;;;;;5145171;27;20597;-70
2022/12/05 01:36:38;;;;;;;13.80;7.30;;;;;;;;;;5118357;27;20118;-71
2022/12/05 01:39:03;;;;;;;15.68;7.20;;;;;;;;;;5149805;27;20563;-69
2022/12/05 01:41:30;;;;;;;11.57;6.57;;;;;;;;;;5144093;27;20110;-69
2022/12/05 01:43:58;;;;;;;14.13;7.13;;;;;;;;;;5127114;27;20027;-69
2022/12/05 01:46:24;;;;;;;11.88;6.40;;;;;;;;;;5146096;27;20015;-69
2022/12/05 01:48:50;;;;;;;12.25;6.65;;;;;;;;;;5148549;27;20482;-69
2022/12/05 01:51:16;;;;;;;13.15;6.80;;;;;;;;;;5121767;27;20039;-69
2022/12/05 01:53:41;;;;;;;10.23;6.35;;;;;;;;;;5147068;27;20030;-68
2022/12/05 01:56:07;;;;;;;9.55;5.72;;;;;;;;;;5124620;27;20027;-69
2022/12/05 01:58:34;;;;;;;9.73;5.68;;;;;;;;;;5146443;27;20043;-68
2022/12/05 02:01:00;;;;;;;12.82;6.13;;;;;;;;;;5145762;27;20098;-68
2022/12/05 02:03:25;;;;;;;10.88;5.88;;;;;;;;;;5146874;27;20118;-69
2022/12/05 02:05:53;;;;;;;10.30;5.50;;;;;;;;;;5121454;27;20066;-69
2022/12/05 02:08:18;;;;;;;10.50;5.88;;;;;;;;;;5148223;27;20106;-68
2022/12/05 02:10:48;;;;;;;12.75;6.45;;;;;;;;;;5145287;27;20365;-69
2022/12/05 02:13:32;;;;;;;10.60;5.38;;;;;;;;;;5147816;27;20019;-68
2022/12/05 02:16:00;;;;;;;10.05;5.70;;;;;;;;;;5149042;27;20091;-69
2022/12/05 02:18:40;;;;;;;11.20;5.43;;;;;;;;;;5146409;27;20039;-68
2022/12/05 02:21:24;;;;;;;9.40;4.97;;;;;;;;;;5124936;27;20518;-68
2022/12/05 02:23:59;;;;;;;7.47;4.20;;;;;;;;;;5140527;27;20086;-69
2022/12/05 02:26:27;;;;;;;10.32;5.10;;;;;;;;;;5144512;27;20464;-69
2022/12/05 02:28:53;;;;;;;8.38;4.93;;;;;;;;;;5146271;27;20030;-68
2022/12/05 02:31:21;;;;;;;9.07;4.83;;;;;;;;;;5145676;27;20535;-69
2022/12/05 02:33:48;;;;;;;9.68;5.07;;;;;;;;;;5144831;27;20023;-68
2022/12/05 02:36:31;;;;;;;9.55;4.68;;;;;;;;;;5145263;27;20067;-69
2022/12/05 02:39:02;;;;;;;8.00;4.30;;;;;;;;;;5145493;27;20027;-69
2022/12/05 02:41:36;;;;;;;8.98;4.50;;;;;;;;;;5120113;27;20117;-69
2022/12/05 02:44:13;;;;;;;11.35;4.78;;;;;;;;;;5139029;27;20031;-68
2022/12/05 02:46:39;;;;;;;7.75;3.70;;;;;;;;;;5139821;27;20027;-69
2022/12/05 02:49:07;;;;;;;7.68;4.18;;;;;;;;;;5144517;27;20035;-68
2022/12/05 02:51:35;;;;;;;7.32;3.83;;;;;;;;;;5147701;27;20045;-68
2022/12/05 02:54:03;;;;;;;8.23;3.85;;;;;;;;;;5126176;27;20023;-69
2022/12/05 02:56:31;;;;;;;6.23;3.37;;;;;;;;;;5131388;27;20035;-68
2022/12/05 02:58:56;;;;;;;6.88;3.63;;;;;;;;;;5139106;27;20060;-69
2022/12/05 03:01:23;;;;;;;5.10;3.07;;;;;;;;;;5149366;27;20119;-68
2022/12/05 03:03:49;;;;;;;8.13;2.92;;;;;;;;;;5146454;27;20338;-69
2022/12/05 03:06:18;;;;;;;6.50;3.38;;;;;;;;;;5122911;27;20031;-68
2022/12/05 03:08:46;;;;;;;4.78;2.42;;;;;;;;;;5148173;27;20050;-68
2022/12/05 03:11:12;;;;;;;6.15;2.85;;;;;;;;;;5153655;27;20022;-69
2022/12/05 03:13:43;;;;;;;4.20;2.15;;;;;;;;;;5148195;27;20560;-68
2022/12/05 03:16:13;;;;;;;4.07;1.92;;;;;;;;;;5149259;27;20058;-69
2022/12/05 03:18:46;;;;;;;5.75;2.30;;;;;;;;;;5147059;27;20023;-68
2022/12/05 03:21:18;;;;;;;4.00;1.90;;;;;;;;;;5151016;27;20026;-69
2022/12/05 03:23:48;;;;;;;4.22;2.13;;;;;;;;;;5148268;27;20028;-69
2022/12/05 03:26:24;;;;;;;3.50;2.03;;;;;;;;;;5130428;27;20101;-69
2022/12/05 03:29:08;;;;;;;6.13;1.92;;;;;;;;;;5147795;27;20498;-68
2022/12/05 03:31:38;;;;;;;3.30;1.80;;;;;;;;;;5128595;27;20015;-69
2022/12/05 03:34:06;;;;;;;4.82;1.90;;;;;;;;;;5142811;27;20030;-69
2022/12/05 03:36:36;;;;;;;2.40;1.58;;;;;;;;;;5144522;27;20031;-68
2022/12/05 03:39:06;;;;;;;3.10;1.60;;;;;;;;;;5145031;27;20117;-69
2022/12/05 03:41:40;;;;;;;2.67;1.42;;;;;;;;;;5143938;27;20029;-69
2022/12/05 03:44:15;;;;;;;3.35;1.60;;;;;;;;;;5124264;27;20019;-69
2022/12/05 03:46:42;;;;;;;3.45;1.65;;;;;;;;;;5131300;27;20030;-69
2022/12/05 03:49:31;;;;;;;2.92;1.80;;;;;;;;;;5128188;27;20034;-68
2022/12/05 03:52:29;;;;;;;1.98;1.30;;;;;;;;;;5141227;27;20034;-69
2022/12/05 03:54:56;;;;;;;2.05;1.40;;;;;;;;;;5101147;27;20121;-69
2022/12/05 03:57:27;;;;;;;2.63;1.48;;;;;;;;;;5144318;27;20166;-69
2022/12/05 04:00:12;;;;;;;2.45;1.40;;;;;;;;;;5147789;27;20023;-69
2022/12/05 04:02:49;;;;;;;3.78;1.77;;;;;;;;;;5127902;27;20035;-69
2022/12/05 04:05:21;;;;;;;3.92;1.83;;;;;;;;;;5142246;27;20107;-69
2022/12/05 04:07:48;;;;;;;2.70;1.55;;;;;;;;;;5128144;27;20135;-68
2022/12/05 04:10:21;;;;;;;4.43;1.58;;;;;;;;;;5148049;27;20434;-69
2022/12/05 04:12:47;;;;;;;3.95;1.80;;;;;;;;;;5145472;27;20026;-68
2022/12/05 04:15:18;;;;;;;2.85;1.83;;;;;;;;;;5147113;27;20118;-68
2022/12/05 04:17:56;;;;;;;5.65;2.80;;;;;;;;;;5149272;27;20468;-69
2022/12/05 04:23:06;;;;;;;4.45;2.17;;;;;;;;;;5147624;27;20094;-69
2022/12/05 04:25:36;;;;;;;4.30;2.33;;;;;;;;;;5148084;27;20105;-69
2022/12/05 04:28:13;;;;;;;4.88;2.65;;;;;;;;;;5148538;27;20018;-69
2022/12/05 04:30:41;;;;;;;5.30;2.83;;;;;;;;;;5117832;27;20134;-69
2022/12/05 04:33:15;;;;;;;7.05;3.35;;;;;;;;;;5147124;27;20026;-69
2022/12/05 04:35:55;;;;;;;6.35;3.08;;;;;;;;;;5148466;27;20027;-69
2022/12/05 04:38:31;;;;;;;7.38;3.58;;;;;;;;;;5143573;27;20023;-70
2022/12/05 04:40:58;;;;;;;5.78;3.45;;;;;;;;;;5138853;27;20019;-69
2022/12/05 04:43:24;;;;;;;5.90;3.20;;;;;;;;;;5125148;27;20025;-68
2022/12/05 04:45:51;;;;;;;6.30;3.78;;;;;;;;;;5144552;27;20096;-69
2022/12/05 04:48:16;;;;;;;6.35;3.58;;;;;;;;;;5149203;27;20509;-68
2022/12/05 04:50:44;;;;;;;6.88;4.00;;;;;;;;;;5146970;27;20027;-68
2022/12/05 04:53:11;;;;;;;6.85;3.88;;;;;;;;;;5148876;27;20091;-69
2022/12/05 04:55:38;;;;;;;6.47;4.00;;;;;;;;;;5117815;27;20023;-68
2022/12/05 04:58:11;;;;;;;6.28;3.83;;;;;;;;;;5145831;27;20038;-69
2022/12/05 05:00:45;;;;;;;8.55;3.72;;;;;;;;;;5145943;27;20030;-70
2022/12/05 05:03:28;;;;;;;9.35;4.47;;;;;;;;;;5141698;27;20972;-70
2022/12/05 05:05:54;;;;;;;9.15;4.32;;;;;;;;;;5146827;27;20026;-69
2022/12/05 05:08:22;;;;;;;7.65;3.65;;;;;;;;;;5125610;27;20072;-70
2022/12/05 05:10:51;;;;;;;10.55;4.05;;;;;;;;;;5146619;27;20022;-70
2022/12/05 05:13:16;;;;;;;7.30;2.80;;;;;;;;;;5125542;27;20034;-69
2022/12/05 05:15:41;;;;;;;8.53;2.70;;;;;;;;;;5142446;27;20022;-69
2022/12/05 05:18:07;;;;;;;6.03;2.33;;;;;;;;;;5122852;27;20078;-69
2022/12/05 05:20:33;;;;;;;6.43;2.85;;;;;;;;;;5127457;27;20274;-71
2022/12/05 05:22:58;;;;;;;8.47;3.40;;;;;;;;;;5125154;27;20498;-70
2022/12/05 05:25:24;;;;;;;5.17;3.17;;;;;;;;;;5145786;27;20023;-69
2022/12/05 05:27:50;;;;;;;11.07;3.83;;;;;;;;;;5145085;27;20274;-71
2022/12/05 05:30:16;;;;;;;6.70;3.60;;;;;;;;;;5126910;27;20400;-70
2022/12/05 05:32:41;;;;;;;7.95;3.70;;;;;;;;;;5144251;27;20149;-70
2022/12/05 05:35:07;;;;;;;7.70;3.67;;;;;;;;;;5131480;27;20031;-70
2022/12/05 05:37:32;;;;;;;8.55;3.65;;;;;;;;;;5142884;27;20441;-70
2022/12/05 05:39:57;;;;;;;9.80;3.20;;;;;;;;;;5123206;27;20045;-70
2022/12/05 05:42:23;;;;;;;6.17;3.10;;;;;;;;;;5123111;27;20031;-70
2022/12/05 05:44:48;;;;;;;5.63;3.27;;;;;;;;;;5149833;27;20467;-70
2022/12/05 05:47:13;;;;;;;5.93;2.70;;;;;;;;;;5128649;27;20279;-70
2022/12/05 05:49:38;;;;;;;6.83;3.27;;;;;;;;;;5140500;27;20038;-71
2022/12/05 05:52:03;;;;;;;6.43;3.07;;;;;;;;;;5118898;27;20031;-69
2022/12/05 05:54:29;;;;;;;5.27;2.60;;;;;;;;;;5126364;27;20022;-70
2022/12/05 05:56:54;;;;;;;4.10;2.60;;;;;;;;;;5146257;27;20076;-70
2022/12/05 05:59:19;;;;;;;7.20;2.77;;;;;;;;;;5130700;27;20113;-71
2022/12/05 06:01:44;;;;;;;5.47;2.43;;;;;;;;;;5145235;27;20089;-70
2022/12/05 06:04:10;;;;;;;5.18;2.90;;;;;;;;;;5120294;27;20060;-71
2022/12/05 06:06:35;;;;;;;5.63;2.97;;;;;;;;;;5124881;27;20022;-70
2022/12/05 06:09:00;;;;;;;5.10;2.90;;;;;;;;;;5145165;27;20270;-70
2022/12/05 06:11:27;;;;;;;5.30;2.80;;;;;;;;;;5146120;27;20851;-70
2022/12/05 06:13:53;;;;;;;4.47;2.55;;;;;;;;;;5127241;28;20065;-71
2022/12/05 06:16:19;;;;;;;3.55;2.30;;;;;;;;;;5127950;27;20019;-70
2022/12/05 06:18:45;;;;;;;4.38;2.70;;;;;;;;;;5124667;28;20026;-70
2022/12/05 06:21:10;;;;;;;5.07;2.60;;;;;;;;;;5124170;28;20533;-70
2022/12/05 06:23:36;;;;;;;6.63;2.65;;;;;;;;;;5124055;27;20023;-70
2022/12/05 06:26:02;;;;;;;5.18;2.90;;;;;;;;;;5120931;28;20024;-69
2022/12/05 06:28:27;;;;;;;3.75;2.38;;;;;;;;;;5121936;27;20011;-68
2022/12/05 06:30:53;;;;;;;7.43;3.55;;;;;;;;;;5126525;27;20085;-69
2022/12/05 06:33:18;;;;;;;6.10;3.15;;;;;;;;;;5121092;27;20034;-69
2022/12/05 06:35:44;;;;;;;5.72;3.00;;;;;;;;;;5127660;27;20027;-70
2022/12/05 06:38:09;;;;;;;5.43;3.15;;;;;;;;;;5129047;27;20034;-69
2022/12/05 06:40:38;;;;;;;9.50;4.15;;;;;;;;;;5124514;27;20051;-69
2022/12/05 06:43:03;;;;;;;6.07;3.85;;;;;;;;;;5119416;27;20489;-69
2022/12/05 06:45:29;;;;;;;7.40;4.33;;;;;;;;;;5126948;27;20023;-70
2022/12/05 06:47:54;;;;;;;8.50;4.13;;;;;;;;;;5128038;27;20492;-70
2022/12/05 06:50:19;;;;;;;7.97;4.60;;;;;;;;;;5130795;27;20487;-71
2022/12/05 06:52:44;;;;;;;7.77;4.37;;;;;;;;;;5125067;27;20282;-70
2022/12/05 06:55:10;;;;;;;8.93;4.67;;;;;;;;;;5130220;27;20079;-69
2022/12/05 06:57:35;;;;;;;11.85;5.43;;;;;;;;;;5128024;27;20027;-69
2022/12/05 07:01:37;;;;;;;8.75;4.95;;;;;;;;;;5131230;27;20476;-70
2022/12/05 07:02:48;;;;;;;11.07;5.30;;;;;;;;;;5126228;27;20087;-70
2022/12/05 07:05:13;;;;;;;9.25;4.60;;;;;;;;;;5125137;27;20042;-69
2022/12/05 07:07:39;;;;;;;7.93;3.97;;;;;;;;;;5130953;27;20384;-70
2022/12/05 07:10:04;;;;;;;9.57;4.63;;;;;;;;;;5128137;27;20019;-70
2022/12/05 07:12:31;;;;;;;8.85;4.30;;;;;;;;;;5124042;27;20271;-70
2022/12/05 07:14:56;;;;;;;9.45;3.88;;;;;;;;;;5144306;27;20047;-70
2022/12/05 07:17:22;;;;;;;6.00;3.13;;;;;;;;;;5148844;27;20030;-70
2022/12/05 07:19:50;;;;;;;7.22;3.38;;;;;;;;;;5147350;27;20034;-70
2022/12/05 07:22:16;;;;;;;5.20;2.75;;;;;;;;;;5150127;27;20556;-70
2022/12/05 07:24:41;;;;;;;3.92;2.60;;;;;;;;;;5121213;27;20121;-70
2022/12/05 07:27:06;;;;;;;5.65;2.72;;;;;;;;;;5148549;27;20031;-70
2022/12/05 07:29:32;;;;;;;3.80;2.70;;;;;;;;;;5147910;27;20031;-70
2022/12/05 07:31:57;;;;;;;6.65;3.50;;;;;;;;;;5150436;27;20283;-69
2022/12/05 07:34:22;;;;;;;9.75;4.20;;;;;;;;;;5150066;27;20079;-68
2022/12/05 07:36:48;;;;;;;10.27;4.77;;;;;;;;;;5128920;27;20522;-68
2022/12/05 07:39:13;;;;;;;11.45;5.63;;;;;;;;;;5150142;27;20019;-69
2022/12/05 07:41:38;;;;;;;14.02;6.85;;;;;;;;;;5130818;27;20023;-70
2022/12/05 07:44:04;;;;;;;17.63;8.20;;;;;;;;;;5151308;27;20171;-69
2022/12/05 07:46:29;;;;;;;17.42;8.57;;;;;;;;;;5150175;27;20743;-69
2022/12/05 07:48:54;;;;;;;17.15;8.80;;;;;;;;;;5149810;27;20023;-70
2022/12/05 07:51:20;;;;;;;16.93;8.50;;;;;;;;;;5147536;27;20026;-70
2022/12/05 07:53:46;;;;;;;15.85;8.30;;;;;;;;;;5150913;27;20290;-70
2022/12/05 07:56:15;;;;;;;15.43;8.05;;;;;;;5.53;nan;101402.13;5148288;27;20083;-71
2022/12/05 07:58:40;;;;;;;19.60;8.63;;;;;;;;;;5145802;27;20484;-69
2022/12/05 08:01:07;;;;;;;21.43;10.83;;;;;;;;;;5129554;27;20185;-69
2022/12/05 08:03:32;;;;;;;44.53;14.00;;;;;;;;;;5146095;27;20774;-70
2022/12/05 08:06:02;;;;;;;26.27;12.25;;;;;;;;;;5144105;27;20027;-69
2022/12/05 08:08:27;;;;;;;22.23;10.10;;;;;;;;;;5129988;27;20096;-69
2022/12/05 08:10:52;;;;;;;22.23;9.43;;;;;;;;;;5126988;27;20034;-69
2022/12/05 08:13:18;;;;;;;19.07;8.70;;;;;;;;;;5148202;27;20035;-68
2022/12/05 08:15:43;;;;;;;14.20;6.50;;;;;;;;;;5147412;27;20070;-69
2022/12/05 08:18:08;;;;;;;11.50;5.53;;;;;;;;;;5149017;27;20757;-70
2022/12/05 08:20:33;;;;;;;10.30;5.70;;;;;;;;;;5146475;27;20274;-70
2022/12/05 08:22:59;;;;;;;13.07;5.50;;;;;;;;;;5146948;27;20115;-71
2022/12/05 08:25:24;;;;;;;11.40;5.60;;;;;;;;;;5146349;27;20034;-70
2022/12/05 08:27:49;;;;;;;12.68;5.82;;;;;;;;;;5148527;27;20033;-71
2022/12/05 08:30:14;;;;;;;11.37;5.17;;;;;;;;;;5143892;27;20022;-69
2022/12/05 08:32:40;;;;;;;10.88;4.68;;;;;;;;;;5146900;27;20026;-69
2022/12/05 08:35:05;;;;;;;8.93;3.93;;;;;;;;;;5148212;27;20137;-69
2022/12/05 08:37:30;;;;;;;7.35;4.20;;;;;;;;;;5124606;27;20286;-69
2022/12/05 08:39:56;;;;;;;9.45;4.30;;;;;;;;;;5130451;27;20038;-69
2022/12/05 08:42:21;;;;;;;6.82;3.83;;;;;;;;;;5148244;27;20031;-69
2022/12/05 08:44:49;;;;;;;7.67;3.33;;;;;;;;;;5126132;27;20035;-69
2022/12/05 08:47:15;;;;;;;6.65;3.03;;;;;;;;;;5150385;27;20014;-70
2022/12/05 08:49:40;;;;;;;5.47;2.77;;;;;;;;;;5145623;27;20487;-68
2022/12/05 08:52:05;;;;;;;5.37;2.90;;;;;;;;;;5147073;27;20117;-69
2022/12/05 08:54:30;;;;;;;5.47;2.80;;;;;;;;;;5148292;27;20383;-69
2022/12/05 08:56:55;;;;;;;5.30;2.33;;;;;;;;;;5146446;27;20515;-71
2022/12/05 08:59:21;;;;;;;5.43;2.35;;;;;;;;;;5151630;27;20023;-69
2022/12/05 09:01:48;;;;;;;5.00;2.30;;;;;;;;;;5146512;27;20035;-68
2022/12/05 09:04:13;;;;;;;4.22;2.35;;;;;;;;;;5141944;27;20289;-69
2022/12/05 09:06:39;;;;;;;3.95;2.33;;;;;;;;;;5143452;27;20027;-69
2022/12/05 09:09:06;;;;;;;4.32;2.15;;;;;;;;;;5146864;27;20031;-69
2022/12/05 09:11:32;;;;;;;5.55;2.55;;;;;;;;;;5139313;27;20030;-69
2022/12/05 09:13:59;;;;;;;4.82;2.30;;;;;;;7.63;nan;101434.38;5127036;27;20053;-68
2022/12/05 09:16:33;;;;;;;6.35;2.40;;;;;;;7.36;nan;101371.09;5121175;27;20058;-68
2022/12/05 09:18:58;;;;;;;3.40;2.10;;;;;;;7.36;nan;101351.94;5146594;27;20035;-70
2022/12/05 09:21:27;;;;;;;3.97;2.40;;;;;;;7.52;nan;101351.75;5145553;27;20517;-68
2022/12/05 09:23:53;;;;;;;3.43;2.10;;;;;;;7.60;nan;101353.47;5149714;27;20050;-69
2022/12/05 09:26:22;;;;;;;3.97;2.05;;;;;;;7.66;nan;101353.56;5140948;27;20015;-68
2022/12/05 09:28:48;;;;;;;3.45;2.10;;;;;;;7.42;nan;101293.56;5127668;27;20529;-68
2022/12/05 09:31:16;;;;;;;3.45;2.00;;;;;;;7.89;nan;101357.88;5143653;27;20038;-67
2022/12/05 09:33:41;;;;;;;3.53;2.08;;;;;;;7.99;nan;101354.97;5145665;27;20034;-66
2022/12/05 09:36:11;;;;;;;6.18;2.42;;;;;;;8.44;nan;101402.91;5143574;27;21238;-67
2022/12/05 09:38:37;;;;;;;3.95;2.30;;;;;;;8.18;nan;101350.94;5141358;27;20061;-68
2022/12/05 09:41:08;;;;;;;5.95;2.30;;;;;;;8.19;nan;101337.63;5144466;27;20050;-68
2022/12/05 09:43:48;;;;;;;3.90;2.08;;;;;;;8.32;nan;101353.50;5120253;27;20027;-68
2022/12/05 09:46:13;;;;;;;4.75;2.67;;;;;;;8.40;nan;101349.16;5147083;27;20083;-66
2022/12/05 09:48:39;;;;;;;8.10;2.88;;;;;;;8.38;nan;101335.38;5120606;27;20030;-67
2022/12/05 09:51:09;;;;;;;6.63;3.22;;;;;;;8.52;nan;101339.78;5143381;27;20036;-67
2022/12/05 09:53:36;;;;;;;;;;;;;;;8.60;nan;101346.75;5121377;27;20114;-68
2022/12/05 09:56:08;;;;;;;4.88;2.40;;;;;;;8.65;nan;101345.19;5146825;27;20343;-67
2022/12/05 09:58:44;;;;;;;3.55;2.33;;;;;;;8.69;nan;101338.56;5121630;27;20143;-67
2022/12/05 10:01:26;;;;;;;3.88;2.15;;;;;;;8.68;nan;101334.28;5141215;27;20030;-68
2022/12/05 10:04:03;;;;;;;5.93;2.35;;;;;;;8.75;nan;101334.34;5127296;27;20038;-68
2022/12/05 10:06:59;;;;;;;4.25;2.70;;;;;;;8.77;nan;101329.72;5117545;27;20145;-67
2022/12/05 10:09:31;;;;;;;3.53;2.17;;;;;;;8.80;nan;101324.09;5122347;27;20031;-69
2022/12/05 10:11:56;;;;;;;3.88;2.10;;;;;;;8.82;nan;101322.09;5148447;27;20031;-69
2022/12/05 10:14:21;;;;;;;4.35;1.90;;;;;;;8.84;nan;101322.72;5129637;27;20095;-67
2022/12/05 10:16:55;;;;;;;4.77;2.07;;;;;;;8.82;nan;101318.66;5147015;27;20100;-69
2022/12/05 10:19:38;;;;;;;2.42;1.70;;;;;;;8.89;nan;101327.41;5113869;27;20270;-68
2022/12/05 10:22:12;;;;;;;3.90;2.25;;;;;;;8.90;nan;101321.94;5133334;27;20471;-68
2022/12/05 10:24:40;;;;;;;4.63;2.30;;;;;;;;;;5154671;27;20034;-68
2022/12/05 10:27:07;;;;;;;3.20;1.90;;;;;;;;;;5145761;27;20038;-69
2022/12/05 10:29:44;;;;;;;3.15;1.90;;;;;;;;;;5151790;27;20101;-69
2022/12/05 10:32:18;;;;;;;5.65;2.22;;;;;;;;;;5131885;27;20054;-68
2022/12/05 10:34:45;;;;;;;3.97;2.22;;;;;;;;;;5145575;27;20438;-70
2022/12/05 10:37:15;;;;;;;4.05;2.17;;;;;;;;;;5151848;27;20391;-69
2022/12/05 10:39:41;;;;;;;4.03;1.80;;;;;;;;;;5147212;27;20015;-69
2022/12/05 10:42:10;;;;;;;5.30;2.10;;;;;;;;;;5147217;27;20057;-68
2022/12/05 10:44:36;;;;;;;5.35;2.30;;;;;;;;;;5122057;27;20041;-69
2022/12/05 10:47:01;;;;;;;5.57;2.42;;;;;;;;;;5123029;27;20023;-69
2022/12/05 10:49:26;;;;;;;4.05;2.50;;;;;;;;;;5125491;27;20057;-69
2022/12/05 10:51:52;;;;;;;2.97;2.15;;;;;;;;;;5149475;27;20101;-69
2022/12/05 10:54:19;;;;;;;5.43;2.47;;;;;;;;;;5152611;27;20030;-69
2022/12/05 10:56:46;;;;;;;9.43;2.60;;;;;;;;;;5128016;27;20041;-69
2022/12/05 10:59:12;;;;;;;4.78;2.25;;;;;;;;;;5144764;27;20552;-69
2022/12/05 11:01:43;;;;;;;4.80;2.05;;;;;;;;;;5148666;27;20034;-69
2022/12/05 11:04:24;;;;;;;4.65;2.38;;;;;;;;;;5146261;27;20432;-69
2022/12/05 11:06:58;;;;;;;5.78;2.42;;;;;;;;;;5147048;27;20408;-70
2022/12/05 11:09:25;;;;;;;6.97;2.63;;;;;;;;;;5130787;27;20141;-70
2022/12/05 11:12:14;;;;;;;4.45;2.38;;;;;;;;;;5151063;27;20105;-70
2022/12/05 11:14:39;;;;;;;;;;;;;;;;;;5153845;27;20123;-69
2022/12/05 11:17:05;;;;;;;5.35;2.53;;;;;;;;;;5129136;27;19915;-70
2022/12/05 11:19:30;;;;;;;5.47;2.42;;;;;;;;;;5146402;27;20673;-70
2022/12/05 11:21:56;;;;;;;4.28;2.63;;;;;;;;;;5146457;27;20031;-69
2022/12/05 11:24:22;;;;;;;5.20;2.90;;;;;;;;;;5142217;27;20026;-69
2022/12/05 11:26:47;;;;;;;6.88;2.78;;;;;;;;;;5148038;27;20023;-69
2022/12/05 11:29:31;;;;;;;4.95;2.75;;;;;;;;;;5147525;27;20042;-70
2022/12/05 11:31:56;;;;;;;6.63;2.78;;;;;;;9.56;nan;101265.50;5148241;27;20078;-70
2022/12/05 11:34:23;;;;;;;6.15;2.85;;;;;;;;;;5127222;27;20031;-70
2022/12/05 11:37:03;;;;;;;3.78;2.38;;;;;;;;;;5146033;27;20075;-70
2022/12/05 11:39:29;;;;;;;4.57;2.60;;;;;;;;;;5126807;27;20053;-68
2022/12/05 11:42:13;;;;;;;8.93;3.20;;;;;;;;;;5153161;27;20444;-67
2022/12/05 11:44:47;;;;;;;5.22;3.22;;;;;;;;;;5150710;27;20023;-68
2022/12/05 11:47:12;;;;;;;4.90;2.63;;;;;;;;;;5146666;27;20019;-68
2022/12/05 11:49:56;;;;;;;4.10;2.53;;;;;;;;;;5149675;27;20480;-70
2022/12/05 11:52:55;;;;;;;4.63;2.63;;;;;;;;;;5129418;27;20019;-67
2022/12/05 11:55:23;;;;;;;5.22;2.38;;;;;;;;;;5051066;28;20048;-69
2022/12/05 11:58:03;;;;;;;6.55;2.20;;;;;;;;;;5047521;28;20380;-68
2022/12/05 12:00:29;;;;;;;7.07;2.42;;;;;;;;;;5048929;28;20029;-64
2022/12/05 12:03:12;;;;;;;4.53;2.40;;;;;;;;;;5048813;28;20607;-68
2022/12/05 12:06:03;;;;;;;4.78;2.58;;;;;;;;;;5047929;28;20044;-65
2022/12/05 12:08:34;;;;;;;3.75;2.20;;;;;;;10.17;nan;101170.69;4969133;28;20038;-68
2022/12/05 12:11:22;;;;;;;3.33;2.20;;;;;;;;;;4952950;28;20037;-68
2022/12/05 12:14:06;;;;;;;3.63;2.23;;;;;;;;;;4969975;28;20050;-67
2022/12/05 12:16:41;;;;;;;7.65;2.40;;;;;;;;;;4953259;28;20070;-68
2022/12/05 12:19:25;;;;;;;5.45;2.40;;;;;;;;;;4967373;28;20469;-69
2022/12/05 12:21:59;;;;;;;8.32;2.67;;;;;;;;;;4951815;28;20532;-67
2022/12/05 12:24:34;;;;;;;6.03;2.40;;;;;;;;;;4956189;28;20112;-69
2022/12/05 12:27:04;;;;;;;6.72;2.47;;;;;;;;;;4960473;28;20160;-68
2022/12/05 12:29:55;;;;;;;9.48;6.10;;;;;;;;;;4969494;28;20038;-68
2022/12/05 12:32:23;;;;;;;7.55;3.67;;;;;;;;;;5038370;28;20499;-68
2022/12/05 12:34:51;;;;;;;7.93;5.25;;;;;;;;;;5031379;28;20036;-68
2022/12/05 12:37:25;;;;;;;8.38;5.43;;;;;;;;;;5042136;28;20372;-68
2022/12/05 12:40:11;;;;;;;8.25;4.10;;;;;;;;;;5044764;28;20403;-67
2022/12/05 12:42:55;;;;;;;6.93;4.38;;;;;;;;;;5041435;28;20063;-67
2022/12/05 12:45:39;;;;;;;8.52;4.97;;;;;;;;;;5089276;27;20492;-68
2022/12/05 12:48:04;;;;;;;6.47;3.63;;;;;;;;;;5123966;27;20027;-68
2022/12/05 12:50:33;;;;;;;6.93;3.93;;;;;;;;;;5140162;27;20030;-67
2022/12/05 12:53:01;;;;;;;8.25;4.60;;;;;;;;;;5146487;27;20018;-68
2022/12/05 12:55:26;;;;;;;10.52;6.72;;;;;;;;;;5125344;27;20030;-68
2022/12/05 12:57:54;;;;;;;7.20;3.87;;;;;;;;;;5145085;27;20431;-68
2022/12/05 13:00:58;;;;;;;9.23;5.22;;;;;;;;;;5143689;27;20118;-68
2022/12/05 13:03:26;;;;;;;6.35;3.90;;;;;;;;;;5028792;28;20588;-68
2022/12/05 13:06:03;;;;;;;9.32;6.50;;;;;;;;;;5042890;28;20153;-68
2022/12/05 13:08:49;;;;;;;8.57;5.53;;;;;;;;;;5046542;28;20039;-68
2022/12/05 13:11:16;;;;;;;9.65;4.30;;;;;;;;;;5045046;28;20509;-68
2022/12/05 13:13:52;;;;;;;7.13;3.95;;;;;;;;;;5047437;28;20051;-68
2022/12/05 13:16:38;;;;;;;11.30;5.45;;;;;;;;;;5045847;28;20553;-68
2022/12/05 13:19:05;;;;;;;11.43;6.90;;;;;;;;;;5028733;28;20049;-68
2022/12/05 13:21:31;;;;;;;9.38;4.65;;;;;;;;;;5047083;28;20067;-68
2022/12/05 13:24:02;;;;;;;7.32;4.70;;;;;;;;;;5046998;28;20514;-68
2022/12/05 13:26:27;;;;;;;8.25;4.70;;;;;;;;;;5047501;28;20469;-68
2022/12/05 13:28:58;;;;;;;9.40;5.10;;;;;;;;;;5046648;28;20040;-67
2022/12/05 13:31:39;;;;;;;11.23;6.07;;;;;;;;;;5041826;28;20033;-69
2022/12/05 13:34:05;;;;;;;11.50;6.40;;;;;;;;;;5089529;27;20122;-68
2022/12/05 13:42:14;;;;;;;8.95;5.38;;;;;;;;;;5144505;27;20034;-68
2022/12/05 13:44:39;;;;;;;8.88;5.40;;;;;;;;;;5146493;27;20014;-69
2022/12/05 13:47:06;;;;;;;9.18;5.20;;;;;;;;;;5147435;27;20047;-69
2022/12/05 13:49:43;;;;;;;13.52;5.40;;;;;;;;;;5141638;27;20027;-69
2022/12/05 13:52:23;;;;;;;7.85;4.13;;;;;;;11.35;nan;101174.25;5139888;27;20031;-68
2022/12/05 13:55:11;;;;;;;7.38;4.15;;;;;;;;;;5149566;27;20521;-68
2022/12/05 13:57:36;;;;;;;6.95;3.42;;;;;;;;;;5147249;27;20022;-68
2022/12/05 14:00:07;;;;;;;7.60;4.10;;;;;;;;;;5147434;27;20106;-68
2022/12/05 14:02:42;;;;;;;6.68;3.83;;;;;;;;;;5146226;27;20025;-68
2022/12/05 14:05:13;;;;;;;9.52;4.60;;;;;;;;;;5146785;27;20059;-69
2022/12/05 14:07:48;;;;;;;8.88;3.75;;;;;;;;;;5140146;27;20384;-68
2022/12/05 14:10:17;;;;;;;9.07;4.20;;;;;;;;;;5142485;27;20047;-67
2022/12/05 14:12:47;;;;;;;7.78;3.90;;;;;;;;;;5148258;27;20529;-68
2022/12/05 14:15:28;;;;;;;6.80;3.30;;;;;;;;;;5144726;27;20080;-67
2022/12/05 14:18:02;;;;;;;7.65;3.67;;;;;;;;;;5146195;27;20026;-68
2022/12/05 14:20:37;;;;;;;7.47;3.42;;;;;;;;;;5143232;27;20038;-68
2022/12/05 14:23:06;;;;;;;8.13;3.78;;;;;;;;;;5146493;27;20035;-68
2022/12/05 14:25:34;;;;;;;10.00;4.10;;;;;;;;;;5147954;27;20077;-68
2022/12/05 14:28:15;;;;;;;6.93;3.63;;;;;;;;;;5121302;27;20373;-68
2022/12/05 14:30:49;;;;;;;8.05;3.97;;;;;;;;;;5138735;27;20094;-68
2022/12/05 14:33:16;;;;;;;5.70;3.53;;;;;;;;;;5142845;27;20154;-69
2022/12/05 14:35:50;;;;;;;8.15;3.67;;;;;;;10.27;nan;101159.78;5146932;27;20045;-68
2022/12/05 14:38:36;;;;;;;7.35;3.80;;;;;;;;;;5143163;27;20026;-67
2022/12/05 14:41:31;;;;;;;8.30;4.15;;;;;;;;;;5145461;27;20439;-68
2022/12/05 14:43:56;;;;;;;8.70;3.70;;;;;;;;;;5124978;27;20058;-68